Time;durP1;ratioP1;P1;durP2;ratioP2;P2;SDS_P1;SDS_P2;PMS_P1;PMS_P2;Temp;Humidity;BMP_temperature;BMP_pressure;BME280_temperature;BME280_humidity;BME280_pressure;Samples;Min_cycle;Max_cycle;Signal;HPM_P1;HPM_P2
2022/06/05 00:02:33;;;;;;;10.10;9.07;;;19.60;79.40;;;18.78;88.70;96124.00;5016428;28;20040;-63
2022/06/05 00:05:26;;;;;;;11.07;8.82;;;19.60;79.30;;;18.73;89.07;96121.25;5036716;28;20044;-63
2022/06/05 00:08:15;;;;;;;10.18;9.13;;;19.60;79.40;;;18.70;88.39;96113.75;5033409;28;20530;-63
2022/06/05 00:10:57;;;;;;;10.32;8.93;;;19.60;79.40;;;18.65;87.95;96111.00;4991400;28;20041;-63
2022/06/05 00:13:49;;;;;;;10.68;9.20;;;19.50;79.60;;;18.60;88.61;96086.91;5008842;28;20034;-63
2022/06/05 00:16:16;;;;;;;11.27;9.35;;;19.40;80.00;;;18.57;87.88;96100.72;5008308;28;20064;-64
2022/06/05 00:18:43;;;;;;;10.40;9.30;;;19.50;80.00;;;18.57;88.45;96100.72;5017762;28;20037;-64
2022/06/05 00:21:08;;;;;;;10.23;9.23;;;19.50;79.90;;;18.55;87.50;96094.78;5023651;28;20049;-64
2022/06/05 00:23:34;;;;;;;11.70;9.50;;;19.50;79.90;;;18.53;87.85;96091.56;5014863;28;20037;-63
2022/06/05 00:26:40;;;;;;;11.85;10.45;;;19.50;80.00;;;18.55;90.13;96097.44;4998596;28;20037;-64
2022/06/05 00:29:36;;;;;;;11.98;10.20;;;19.40;80.20;;;18.50;90.13;96108.03;5022276;28;20049;-62
2022/06/05 00:32:21;;;;;;;13.75;10.77;;;19.40;80.50;;;18.48;90.59;96104.78;4998680;28;20111;-63
2022/06/05 00:34:47;;;;;;;12.13;10.60;;;19.40;80.50;;;18.44;88.89;96107.13;4974365;28;20609;-64
2022/06/05 00:37:44;;;;;;;11.25;10.15;;;19.40;80.70;;;18.43;90.31;96102.03;5012372;28;20035;-63
2022/06/05 00:40:31;;;;;;;13.68;10.40;;;19.30;80.70;;;18.38;91.21;96100.09;5002392;28;20566;-64
2022/06/05 00:43:01;;;;;;;12.57;11.23;;;19.20;80.80;;;18.33;89.98;96106.13;5013643;28;20037;-64
2022/06/05 00:45:28;;;;;;;12.07;10.23;;;19.20;80.80;;;18.31;90.12;96105.53;4996353;28;20103;-63
2022/06/05 00:47:53;;;;;;;11.82;10.63;;;19.20;80.70;;;18.29;89.60;96104.97;4988207;28;20092;-66
2022/06/05 00:50:22;;;;;;;13.15;10.88;;;19.20;80.80;;;18.26;90.55;96089.47;5000518;28;20500;-63
2022/06/05 00:52:53;;;;;;;13.93;11.13;;;19.20;80.80;;;18.27;89.59;96093.75;4948716;28;20056;-63
2022/06/05 00:55:19;;;;;;;;;;;19.10;81.00;;;18.23;91.30;96087.28;5018798;28;20052;-65
2022/06/05 00:57:45;;;;;;;14.15;11.73;;;19.10;81.00;;;18.21;89.75;96088.56;5004697;28;20746;-64
2022/06/05 01:00:27;;;;;;;14.88;11.60;;;19.10;81.00;;;18.20;91.10;96087.75;4998302;28;20401;-66
2022/06/05 01:02:54;;;;;;;11.80;10.68;;;19.10;81.10;;;18.19;90.03;96088.00;5000056;28;20373;-64
2022/06/05 01:05:21;;;;;;;13.73;11.43;;;19.10;81.20;;;18.19;90.78;96088.81;4987196;28;20034;-63
2022/06/05 01:07:47;;;;;;;11.95;10.75;;;19.10;81.20;;;18.18;90.49;96084.53;5012231;28;20037;-63
2022/06/05 01:10:13;;;;;;;12.77;11.65;;;19.10;81.30;;;18.17;91.38;96077.59;5042385;28;20033;-64
2022/06/05 01:13:03;;;;;;;13.82;11.77;;;19.10;81.60;;;18.16;92.25;96075.97;4979879;28;20049;-63
2022/06/05 01:15:43;;;;;;;11.98;10.68;;;19.10;81.60;;;18.13;92.74;96079.13;5005836;28;20034;-63
2022/06/05 01:19:12;;;;;;;13.40;10.85;;;19.10;81.70;;;18.13;92.75;96087.09;4993523;28;20042;-63
2022/06/05 01:22:25;;;;;;;11.60;10.35;;;19.10;81.80;;;18.10;92.94;96090.22;5009191;28;20121;-63
2022/06/05 01:25:33;;;;;;;12.15;10.65;;;19.00;81.80;;;18.09;93.47;96085.94;5041660;28;20098;-63
2022/06/05 01:28:07;;;;;;;13.57;11.25;;;19.00;81.80;;;18.05;92.42;96079.47;5022032;28;20039;-63
2022/06/05 01:30:35;;;;;;;13.73;12.38;;;19.00;81.90;;;18.01;92.61;96076.47;5008636;28;20174;-63
2022/06/05 01:33:08;;;;;;;12.85;11.25;;;19.00;82.00;;;18.02;92.78;96074.63;5005792;28;20529;-63
2022/06/05 01:35:44;;;;;;;12.02;10.88;;;19.00;81.90;;;18.00;92.78;96060.75;4992425;28;20373;-63
2022/06/05 01:38:17;;;;;;;12.65;11.35;;;18.90;81.80;;;17.97;92.85;96062.03;5003993;28;20033;-64
2022/06/05 01:40:47;;;;;;;12.90;11.35;;;18.90;81.60;;;17.93;91.74;96060.88;4986768;28;20038;-63
2022/06/05 01:43:22;;;;;;;13.40;11.00;;;18.80;81.70;;;17.91;93.30;96048.88;4980260;28;20039;-63
2022/06/05 01:45:57;;;;;;;17.50;12.35;;;18.80;81.80;;;17.87;92.85;96043.19;5014792;28;20041;-63
2022/06/05 01:48:52;;;;;;;13.63;12.20;;;18.80;82.10;;;17.85;93.28;96047.13;5015261;28;20038;-63
2022/06/05 01:51:34;;;;;;;14.98;12.48;;;18.70;82.00;;;17.84;92.86;96050.84;4995225;28;20037;-64
2022/06/05 01:54:06;;;;;;;14.82;12.02;;;18.80;82.00;;;17.83;92.91;96043.91;4979032;28;20054;-63
2022/06/05 01:57:08;;;;;;;13.88;12.35;;;18.70;81.90;;;17.79;93.25;96048.06;4984203;28;20048;-63
2022/06/05 01:59:50;;;;;;;12.85;11.55;;;18.70;82.00;;;17.75;93.54;96040.56;5028719;28;20030;-63
2022/06/05 02:02:25;;;;;;;12.98;11.63;;;18.70;82.00;;;17.67;93.63;96030.31;5001990;28;20037;-63
2022/06/05 02:04:56;;;;;;;13.30;11.82;;;18.60;82.20;;;17.67;93.20;96035.63;4995448;28;20061;-64
2022/06/05 02:07:38;;;;;;;13.02;11.73;;;18.70;82.30;;;17.68;93.96;96042.56;4996307;28;20091;-64
2022/06/05 02:10:28;;;;;;;13.52;11.73;;;18.60;82.30;;;17.66;93.34;96033.16;5010142;28;20025;-63
2022/06/05 02:12:54;;;;;;;13.20;11.23;;;18.60;82.40;;;17.63;93.24;96025.63;5027237;28;20025;-63
2022/06/05 02:15:20;;;;;;;12.63;11.30;;;18.60;82.60;;;17.64;93.73;96028.06;5039625;28;20025;-65
2022/06/05 02:17:46;;;;;;;13.05;11.77;;;18.60;82.40;;;17.61;93.15;96025.06;5014167;28;20045;-63
2022/06/05 02:20:12;;;;;;;13.48;12.07;;;18.60;82.40;;;17.59;93.43;96022.63;5025720;28;20152;-64
2022/06/05 02:22:43;;;;;;;12.35;11.18;;;18.60;82.40;;;17.59;94.07;96021.81;5014830;28;20071;-63
2022/06/05 02:25:09;;;;;;;13.35;12.05;;;18.60;82.50;;;17.55;93.68;96026.00;5013103;28;20037;-63
2022/06/05 02:27:35;;;;;;;12.07;10.98;;;18.50;82.60;;;17.50;93.61;96016.06;4993401;28;20037;-64
2022/06/05 02:30:01;;;;;;;13.68;12.23;;;18.50;82.60;;;17.46;94.08;96014.94;5011216;28;20034;-64
2022/06/05 02:33:09;;;;;;;13.23;11.50;;;18.50;82.70;;;17.47;95.16;96011.22;5000600;28;20400;-63
2022/06/05 02:36:19;;;;;;;16.10;11.90;;;18.40;82.80;;;17.42;95.69;96000.47;5028550;28;20030;-63
2022/06/05 02:39:07;;;;;;;15.10;12.13;;;18.40;82.80;;;17.36;94.99;95999.56;5017937;28;20036;-63
2022/06/05 02:41:56;;;;;;;13.32;12.02;;;18.30;82.90;;;17.34;95.16;95998.97;5010092;28;20059;-64
2022/06/05 02:44:52;;;;;;;13.38;11.70;;;18.30;82.90;;;17.32;95.38;95995.75;5014217;28;20052;-64
2022/06/05 02:48:06;;;;;;;13.07;11.68;;;18.30;83.00;;;17.30;96.09;95981.06;5001017;28;20080;-63
2022/06/05 02:51:14;;;;;;;13.50;11.95;;;18.30;82.90;;;17.25;95.68;95973.00;5025033;28;20044;-64
2022/06/05 02:53:54;;;;;;;14.15;11.68;;;18.20;83.00;;;17.20;95.16;95972.88;5017078;28;20382;-63
2022/06/05 02:56:21;;;;;;;14.75;12.15;;;18.20;83.10;;;17.15;94.96;95971.72;4999238;28;20083;-63
2022/06/05 02:58:48;;;;;;;14.48;12.30;;;18.10;83.20;;;17.13;95.48;95959.72;5012797;28;20033;-63
2022/06/05 03:03:58;;;;;;;15.50;11.43;;;18.10;83.20;;;17.11;95.28;95951.97;5015766;28;20079;-64
2022/06/05 03:06:24;;;;;;;14.27;12.55;;;18.10;83.20;;;17.10;95.29;95941.56;5034060;28;20058;-64
2022/06/05 03:08:50;;;;;;;12.98;11.63;;;18.20;83.10;;;17.08;96.02;95936.50;5029763;28;20092;-62
2022/06/05 03:11:15;;;;;;;15.43;11.77;;;18.10;83.20;;;17.07;95.29;95940.19;5027758;28;20113;-63
2022/06/05 03:13:41;;;;;;;12.95;11.70;;;18.10;83.10;;;17.06;95.48;95932.47;5035008;28;20061;-64
2022/06/05 03:16:08;;;;;;;14.20;12.02;;;18.10;83.20;;;17.03;95.44;95922.31;5000515;28;20048;-63
2022/06/05 03:18:34;;;;;;;13.80;12.13;;;18.10;83.10;;;17.01;95.95;95930.50;5001081;28;20044;-63
2022/06/05 03:21:00;;;;;;;13.25;11.85;;;18.00;83.30;;;17.00;95.42;95928.91;5026291;28;20102;-63
2022/06/05 03:23:26;;;;;;;14.05;12.70;;;18.00;83.40;;;17.00;95.97;95928.09;5021948;28;20497;-64
2022/06/05 03:25:52;;;;;;;13.68;12.05;;;18.00;83.30;;;16.98;96.29;95920.34;5019072;28;20037;-62
2022/06/05 03:28:17;;;;;;;12.98;11.68;;;18.00;83.30;;;16.96;95.80;95919.75;5021801;28;20042;-63
2022/06/05 03:30:43;;;;;;;12.82;11.52;;;18.00;83.20;;;16.97;95.61;95913.41;5013874;28;20037;-63
2022/06/05 03:33:09;;;;;;;14.32;12.45;;;18.00;83.20;;;16.98;95.48;95914.22;5002243;28;20050;-63
2022/06/05 03:35:40;;;;;;;13.73;12.30;;;18.10;83.00;;;16.99;96.39;95916.66;5004802;28;20512;-63
2022/06/05 03:38:06;;;;;;;13.75;12.32;;;18.00;83.10;;;16.96;96.14;95917.09;5024554;28;20029;-63
2022/06/05 03:40:32;;;;;;;13.43;12.23;;;18.10;83.00;;;16.98;96.55;95907.06;4995320;28;20116;-64
2022/06/05 03:42:58;;;;;;;13.85;12.45;;;18.10;83.00;;;17.01;95.88;95901.28;4989016;28;20176;-64
2022/06/05 03:45:23;;;;;;;12.95;11.80;;;18.10;82.80;;;16.99;96.10;95894.59;5024818;28;20049;-63
2022/06/05 03:47:50;;;;;;;12.43;11.05;;;18.10;83.00;;;16.99;96.45;95899.91;5009283;28;20068;-63
2022/06/05 03:50:16;;;;;;;12.63;11.45;;;18.10;82.90;;;16.98;96.63;95908.91;5009173;28;20038;-63
2022/06/05 03:52:42;;;;;;;12.73;11.43;;;18.10;82.90;;;16.97;96.75;95905.44;4998342;28;20060;-64
2022/06/05 03:55:10;;;;;;;13.48;11.75;;;18.10;83.00;;;17.02;96.03;95912.72;5001574;28;20554;-63
2022/06/05 03:57:36;;;;;;;50.83;13.20;;;18.10;83.00;;;17.00;96.51;95912.97;5020305;28;20117;-64
2022/06/05 04:00:03;;;;;;;12.90;11.60;;;18.10;82.90;;;17.01;96.62;95898.63;5033098;28;20467;-64
2022/06/05 04:02:29;;;;;;;13.05;11.73;;;18.20;82.80;;;17.04;96.44;95897.34;5049590;28;20507;-64
2022/06/05 04:04:55;;;;;;;12.60;11.30;;;18.20;82.90;;;17.06;96.71;95901.38;5025714;28;20045;-63
2022/06/05 04:07:20;;;;;;;11.95;10.57;;;18.20;82.90;;;17.11;96.63;95900.66;5028233;28;20084;-64
2022/06/05 04:09:46;;;;;;;14.05;11.70;;;18.30;82.60;;;17.15;96.33;95896.50;5005445;28;20155;-64
2022/06/05 04:12:12;;;;;;;11.93;10.73;;;18.40;82.40;;;17.14;96.17;95895.69;5031721;28;20045;-67
2022/06/05 04:14:37;;;;;;;12.00;10.80;;;18.30;82.40;;;17.19;95.77;95899.50;5019519;28;20492;-68
2022/06/05 04:17:05;;;;;;;12.50;11.18;;;18.40;82.10;;;17.15;96.21;95884.00;5014921;28;20087;-67
2022/06/05 04:19:31;;;;;;;12.75;11.55;;;18.50;82.00;;;17.20;96.03;95887.81;5028468;28;20116;-68
2022/06/05 04:21:56;;;;;;;14.50;10.95;;;18.40;82.00;;;17.23;95.90;95890.03;4998982;28;20083;-64
2022/06/05 04:24:22;;;;;;;12.40;11.10;;;18.50;81.90;;;17.27;95.88;95891.16;5014668;28;20452;-65
2022/06/05 04:26:48;;;;;;;13.40;10.80;;;18.60;81.70;;;17.27;95.93;95881.34;5031599;28;20071;-66
2022/06/05 04:29:14;;;;;;;17.77;11.07;;;18.50;81.70;;;17.29;95.65;95887.22;5036486;28;20036;-65
2022/06/05 04:31:45;;;;;;;12.40;10.73;;;18.60;81.60;;;17.33;95.54;95891.03;5009014;28;20034;-64
2022/06/05 04:34:11;;;;;;;;;;;18.60;81.60;;;17.34;95.75;95894.50;5045105;28;20037;-65
2022/06/05 04:36:37;;;;;;;13.07;10.07;;;18.60;81.40;;;17.37;94.87;95897.47;5004848;28;19939;-66
2022/06/05 04:39:03;;;;;;;11.70;10.60;;;18.70;81.40;;;17.42;95.34;95894.09;5013665;28;20415;-64
2022/06/05 04:41:29;;;;;;;10.95;9.90;;;18.80;81.10;;;17.46;95.07;95884.63;5028448;28;20075;-66
2022/06/05 04:43:55;;;;;;;11.20;10.15;;;18.80;81.00;;;17.50;94.91;95887.63;5025961;28;20034;-66
2022/06/05 04:46:22;;;;;;;12.50;9.85;;;18.90;80.80;;;17.56;94.62;95890.13;5042588;28;20033;-65
2022/06/05 04:48:48;;;;;;;10.77;9.77;;;19.00;80.80;;;17.60;94.43;95880.63;5032856;28;20045;-66
2022/06/05 04:51:15;;;;;;;11.32;10.02;;;19.00;80.80;;;17.65;95.19;95885.22;5020790;28;20338;-64
2022/06/05 04:53:41;;;;;;;10.82;9.93;;;19.00;80.80;;;17.69;94.48;95881.91;4987154;28;20034;-65
2022/06/05 04:56:12;;;;;;;10.75;9.30;;;19.10;80.40;;;17.72;94.05;95878.75;5014057;28;20036;-66
2022/06/05 04:58:38;;;;;;;11.50;9.73;;;19.10;80.10;;;17.78;94.55;95868.19;4996114;28;20037;-65
2022/06/05 05:01:33;;;;;;;10.95;8.57;;;19.10;80.10;;;17.84;94.33;95856.59;5032629;28;20040;-65
2022/06/05 05:04:04;;;;;;;9.82;8.93;;;19.20;79.90;;;17.88;93.70;95844.41;5025798;28;20037;-66
2022/06/05 05:06:30;;;;;;;10.77;8.65;;;19.30;79.60;;;17.89;93.48;95846.06;5002416;28;20073;-65
2022/06/05 05:08:56;;;;;;;9.63;8.65;;;19.30;79.00;;;17.91;92.45;95843.97;5026621;28;20038;-65
2022/06/05 05:11:22;;;;;;;10.35;8.75;;;19.30;79.10;;;17.94;93.14;95848.81;5021602;28;20053;-65
2022/06/05 05:13:48;;;;;;;10.20;8.65;;;19.40;79.20;;;18.03;93.20;95847.34;4996326;28;20664;-68
2022/06/05 05:16:14;;;;;;;12.48;9.38;;;19.50;79.20;;;18.10;92.50;95847.16;4985734;28;20037;-66
2022/06/05 05:18:40;;;;;;;12.43;10.63;;;19.50;78.80;;;18.17;92.68;95847.84;5000857;28;20038;-66
2022/06/05 05:21:17;;;;;;;10.18;8.57;;;19.70;78.40;;;18.25;91.95;95847.41;4991574;28;20069;-65
2022/06/05 05:23:43;;;;;;;8.55;7.68;;;19.80;77.40;;;18.32;92.12;95846.19;5026236;28;20550;-66
2022/06/05 05:26:30;;;;;;;9.05;7.55;;;19.90;77.80;;;18.49;91.41;95850.69;5008706;28;20038;-66
2022/06/05 05:28:56;;;;;;;9.00;7.00;;;20.10;77.20;;;18.60;91.01;95845.28;4997398;28;21796;-65
2022/06/05 05:31:25;;;;;;;9.98;7.20;;;20.30;76.60;;;18.75;89.50;95843.91;5012320;28;20203;-67
2022/06/05 05:33:51;;;;;;;8.02;6.70;;;20.50;75.60;;;18.88;89.11;95828.38;5026057;28;20041;-65
2022/06/05 05:36:18;;;;;;;8.38;6.80;;;20.60;74.70;;;19.06;87.94;95829.13;4976342;28;20040;-65
2022/06/05 05:44:15;;;;;;;7.75;6.22;;;21.10;72.80;;;19.46;85.90;95791.41;5013197;28;20192;-65
2022/06/05 05:46:41;;;;;;;9.80;6.70;;;21.20;72.60;;;19.56;85.32;95786.19;4995511;28;20037;-67
2022/06/05 05:49:08;;;;;;;8.57;7.45;;;21.30;72.20;;;19.67;85.48;95793.22;4997618;28;20084;-63
2022/06/05 05:51:33;;;;;;;7.35;5.95;;;21.30;72.20;;;19.72;83.99;95782.63;5026005;28;20385;-64
2022/06/05 05:53:59;;;;;;;5.82;5.22;;;21.40;71.30;;;19.76;83.50;95788.25;5029373;28;20036;-64
2022/06/05 05:56:25;;;;;;;7.63;5.72;;;21.30;70.90;;;19.77;83.26;95781.84;5025145;28;20037;-66
2022/06/05 05:58:51;;;;;;;7.43;6.13;;;21.30;71.30;;;19.80;81.64;95786.69;5012283;28;20041;-64
2022/06/05 06:01:16;;;;;;;8.10;5.70;;;21.20;71.20;;;19.81;82.12;95781.09;5019930;28;20025;-64
2022/06/05 06:03:42;;;;;;;8.02;5.47;;;21.20;71.00;;;19.86;81.35;95793.66;5012120;28;20191;-68
2022/06/05 06:06:08;;;;;;;9.30;5.47;;;21.30;70.60;;;19.86;81.30;95785.66;5009011;28;20034;-67
2022/06/05 06:08:34;;;;;;;6.53;4.95;;;21.30;70.90;;;19.95;81.55;95786.00;5024215;28;20103;-66
2022/06/05 06:10:59;;;;;;;7.13;5.88;;;21.60;70.30;;;20.01;81.44;95777.78;4991665;28;21693;-65
2022/06/05 06:13:25;;;;;;;6.80;5.20;;;21.70;69.90;;;20.10;80.92;95775.41;5029848;28;20041;-66
2022/06/05 06:15:51;;;;;;;11.77;7.50;;;21.70;69.80;;;20.16;80.23;95772.53;4999810;28;20104;-67
2022/06/05 06:18:17;;;;;;;8.50;5.63;;;21.80;70.00;;;20.27;79.94;95775.28;5012436;28;20025;-67
2022/06/05 06:20:44;;;;;;;6.78;5.25;;;21.90;69.50;;;20.35;80.46;95772.09;5010547;28;20473;-65
2022/06/05 06:23:10;;;;;;;5.65;4.70;;;22.00;69.30;;;20.43;79.64;95758.31;4959943;28;20521;-64
2022/06/05 06:25:37;;;;;;;5.63;5.05;;;22.10;68.90;;;20.47;79.88;95759.41;4982106;28;20033;-65
2022/06/05 06:28:04;;;;;;;5.70;4.80;;;22.10;69.20;;;20.54;79.54;95754.59;4987440;28;20038;-69
2022/06/05 06:30:32;;;;;;;6.15;4.60;;;22.20;69.00;;;20.59;79.57;95757.31;4995200;28;20040;-64
2022/06/05 06:32:58;;;;;;;4.90;4.30;;;22.20;69.00;;;20.67;79.62;95753.34;4994701;28;20117;-63
2022/06/05 06:35:23;;;;;;;8.57;5.50;;;22.40;68.10;;;20.76;78.50;95762.47;4999306;28;20058;-62
2022/06/05 06:37:49;;;;;;;8.00;6.53;;;22.60;67.60;;;20.84;78.30;95761.19;5003555;28;20413;-63
2022/06/05 06:40:15;;;;;;;8.25;5.68;;;22.60;66.80;;;20.93;78.32;95764.94;5008852;28;20034;-62
2022/06/05 06:42:40;;;;;;;5.00;4.50;;;22.60;66.80;;;20.99;77.17;95777.25;4991484;28;20080;-64
2022/06/05 06:45:07;;;;;;;6.00;4.40;;;22.60;66.80;;;21.02;76.63;95776.72;5017306;28;20025;-62
2022/06/05 06:47:33;;;;;;;6.43;4.32;;;22.60;66.50;;;21.07;76.57;95784.78;5029546;28;20034;-64
2022/06/05 06:49:59;;;;;;;5.88;4.55;;;22.70;66.90;;;21.08;76.61;95781.03;4978387;28;20034;-64
2022/06/05 06:52:25;;;;;;;5.95;4.20;;;22.60;67.10;;;21.05;76.15;95786.91;4990230;28;20034;-62
2022/06/05 06:54:50;;;;;;;5.07;4.03;;;22.60;67.00;;;21.02;76.02;95790.09;5023485;28;20122;-64
2022/06/05 06:57:16;;;;;;;5.05;4.45;;;22.50;66.50;;;20.97;75.97;95795.44;5000258;28;20026;-64
2022/06/05 06:59:42;;;;;;;6.60;4.20;;;22.50;67.40;;;20.96;76.02;95799.16;4980118;28;20533;-63
2022/06/05 07:02:08;;;;;;;5.10;4.60;;;22.40;67.30;;;20.95;76.01;95808.25;5021663;28;20497;-62
2022/06/05 07:04:34;;;;;;;6.72;4.75;;;22.40;67.40;;;20.96;75.26;95816.03;5011541;28;20057;-64
2022/06/05 07:07:00;;;;;;;7.80;5.75;;;22.50;67.30;;;20.99;76.26;95820.03;5029923;28;20018;-63
2022/06/05 07:09:25;;;;;;;9.57;5.75;;;22.60;67.10;;;21.04;75.49;95814.69;5010278;28;20132;-63
2022/06/05 07:11:51;;;;;;;6.03;4.53;;;22.60;66.80;;;21.07;75.86;95807.00;5033554;28;20060;-63
2022/06/05 07:14:17;;;;;;;9.32;4.60;;;22.70;66.80;;;21.12;76.04;95800.84;4995380;28;20068;-67
2022/06/05 07:16:43;;;;;;;4.70;4.25;;;22.90;66.40;;;21.14;76.37;95803.25;5029633;28;20030;-64
2022/06/05 07:19:09;;;;;;;7.78;4.40;;;22.80;66.60;;;21.18;75.21;95807.81;5015140;28;20527;-64
2022/06/05 07:21:34;;;;;;;4.47;4.07;;;22.90;66.20;;;21.29;75.31;95825.56;4990840;28;20033;-64
2022/06/05 07:24:00;;;;;;;4.68;3.90;;;23.30;65.60;;;21.44;76.03;95877.47;5004995;28;20497;-64
2022/06/05 07:26:31;;;;;;;5.13;4.10;;;23.40;65.80;;;21.59;75.00;95939.09;5012614;28;20084;-64
2022/06/05 07:28:58;;;;;;;7.57;3.78;;;23.50;64.80;;;21.76;75.53;95974.50;4994897;28;20407;-63
2022/06/05 07:31:26;;;;;;;6.75;4.28;;;23.80;65.30;;;21.86;75.16;95969.19;5008600;28;20042;-64
2022/06/05 07:33:51;;;;;;;4.85;4.32;;;23.80;65.00;;;21.96;74.23;95939.75;4976168;28;20083;-63
2022/06/05 07:36:17;;;;;;;4.75;4.05;;;24.00;63.50;;;22.15;74.09;95945.44;4993324;28;20445;-64
2022/06/05 07:38:43;;;;;;;4.78;3.88;;;24.40;63.40;;;22.42;74.12;95961.28;4984384;28;20549;-65
2022/06/05 07:41:22;;;;;;;11.73;9.15;;;25.10;62.30;;;22.73;73.01;95969.34;5004208;28;20030;-64
2022/06/05 07:43:48;;;;;;;7.68;6.70;;;25.30;61.90;;;22.94;73.85;95972.84;4995658;28;20044;-64
2022/06/05 07:46:13;;;;;;;5.00;4.15;;;25.30;61.10;;;23.06;71.95;95971.47;5029120;28;20112;-65
2022/06/05 07:48:40;;;;;;;4.70;4.20;;;25.30;59.60;;;23.19;71.82;95987.03;5014756;28;20068;-65
2022/06/05 07:56:37;;;;;;;4.50;4.03;;;25.30;60.10;;;23.30;70.31;95989.66;4996940;28;20040;-63
2022/06/05 07:59:03;;;;;;;5.75;4.00;;;25.20;60.30;;;23.25;70.50;95984.31;4995282;28;20034;-64
2022/06/05 08:01:29;;;;;;;7.22;4.40;;;25.00;60.10;;;23.18;69.04;95974.69;5013204;28;20438;-64
2022/06/05 08:03:54;;;;;;;4.35;3.85;;;24.80;60.60;;;23.19;69.64;95981.66;4995294;28;20037;-64
2022/06/05 08:06:20;;;;;;;5.07;4.25;;;24.90;61.30;;;23.19;69.58;95997.75;5021399;28;20543;-65
2022/06/05 08:08:46;;;;;;;5.13;3.90;;;24.90;61.60;;;23.15;70.34;95985.97;5031849;28;20045;-64
2022/06/05 08:11:12;;;;;;;7.95;3.80;;;24.90;61.50;;;23.15;70.12;95980.59;5006981;28;20065;-63
2022/06/05 08:13:37;;;;;;;5.13;3.50;;;25.10;61.40;;;23.18;70.54;95973.88;5011366;28;20030;-64
2022/06/05 08:16:04;;;;;;;5.85;4.13;;;25.10;61.20;;;23.22;69.78;95966.88;5007306;28;20409;-63
2022/06/05 08:18:29;;;;;;;5.15;3.65;;;25.10;61.00;;;23.20;69.59;95972.53;5009317;28;20068;-64
2022/06/05 08:20:55;;;;;;;5.75;3.90;;;25.00;61.30;;;23.20;69.39;95983.25;5013929;28;20030;-63
2022/06/05 08:23:22;;;;;;;5.05;4.50;;;24.90;61.50;;;23.19;69.53;95984.34;5003662;28;20032;-64
2022/06/05 08:25:47;;;;;;;4.53;3.55;;;24.80;61.60;;;23.17;69.95;95994.53;5030899;28;20037;-64
2022/06/05 08:28:13;;;;;;;5.15;3.85;;;24.80;61.50;;;23.21;69.67;95992.91;5013937;28;20202;-64
2022/06/05 08:30:39;;;;;;;4.20;3.45;;;25.00;62.20;;;23.27;69.73;95982.16;5009165;28;20618;-64
2022/06/05 08:33:05;;;;;;;5.18;3.65;;;25.10;61.50;;;23.33;69.54;95962.31;4993717;28;20079;-64
2022/06/05 08:35:31;;;;;;;6.68;3.90;;;25.30;60.70;;;23.44;69.00;95953.13;5019967;28;20527;-64
2022/06/05 08:43:50;;;;;;;4.47;4.07;;;26.30;59.10;;;24.11;68.78;95931.09;4997631;28;20035;-63
2022/06/05 08:46:25;;;;;;;7.13;4.80;;;26.80;58.00;;;24.42;68.20;95910.19;5027195;28;20037;-63
2022/06/05 08:49:01;;;;;;;4.85;4.35;;;27.00;57.70;;;24.60;66.72;95916.75;5029422;28;20121;-64
2022/06/05 08:51:40;;;;;;;5.03;4.25;;;26.80;57.30;;;24.76;65.79;95938.16;4994608;28;20037;-65
2022/06/05 08:54:24;;;;;;;6.25;3.92;;;27.10;55.90;;;25.07;65.62;95949.47;5011781;28;20038;-65
2022/06/05 08:56:58;;;;;;;4.65;3.60;;;27.70;55.70;;;25.41;64.49;95954.78;4994594;28;20378;-63
2022/06/05 08:59:31;;;;;;;5.30;4.32;;;28.20;53.20;;;25.73;63.87;95954.16;4993717;28;20044;-64
2022/06/05 09:02:28;;;;;;;13.73;12.43;;;28.60;52.40;;;26.10;61.41;95956.09;5013931;28;20049;-64
2022/06/05 09:05:31;;;;;;;5.00;4.47;;;29.10;51.10;;;26.53;60.92;95959.53;5018115;28;20081;-64
2022/06/05 09:08:03;;;;;;;6.78;5.93;;;29.60;50.90;;;26.86;62.18;95952.25;4974645;28;20037;-65
2022/06/05 09:10:45;;;;;;;6.63;4.35;;;30.00;50.00;;;27.22;59.43;95941.66;5005763;28;20026;-63
2022/06/05 09:13:19;;;;;;;5.80;4.10;;;30.40;48.10;;;27.53;58.09;95955.38;5031447;28;20036;-63
2022/06/05 09:15:58;;;;;;;5.18;4.30;;;30.60;47.50;;;27.80;57.07;95967.28;5046529;28;20041;-64
2022/06/05 09:18:24;;;;;;;4.50;4.05;;;30.80;47.10;;;27.89;59.00;95965.50;4985251;28;20042;-65
2022/06/05 09:20:56;;;;;;;4.97;4.07;;;30.60;46.30;;;27.88;55.85;95962.00;4995748;28;20054;-65
2022/06/05 09:23:34;;;;;;;6.05;4.82;;;30.40;46.90;;;27.90;55.24;95956.28;5029345;28;20381;-64
2022/06/05 09:26:22;;;;;;;9.27;8.38;;;30.30;46.30;;;27.85;55.55;95957.19;4997013;28;20033;-64
2022/06/05 09:28:58;;;;;;;8.73;7.75;;;30.40;47.50;;;27.99;55.28;95955.25;4996545;28;20068;-65
2022/06/05 09:31:48;;;;;;;6.07;4.50;;;31.20;45.70;;;28.27;56.48;95942.50;4997508;28;20029;-65
2022/06/05 09:34:19;;;;;;;4.82;3.80;;;31.60;45.90;;;28.65;55.23;95942.97;5007505;28;20037;-64
2022/06/05 09:37:04;;;;;;;4.85;3.75;;;32.30;44.40;;;28.96;53.71;95936.81;5007931;28;20083;-64
2022/06/05 09:39:36;;;;;;;7.50;5.68;;;32.40;43.70;;;28.99;53.63;95936.22;5014236;28;20516;-64
2022/06/05 09:42:40;;;;;;;6.55;4.60;;;31.80;44.50;;;28.94;53.26;95933.59;4998562;28;20459;-65
2022/06/05 09:45:42;;;;;;;4.60;3.95;;;31.50;45.60;;;28.97;53.34;95924.88;4968279;28;20436;-64
2022/06/05 09:48:49;;;;;;;6.93;4.50;;;31.90;45.30;;;29.16;51.78;95925.44;4998110;28;20049;-64
2022/06/05 09:51:16;;;;;;;5.43;4.80;;;32.10;44.00;;;29.16;53.83;95941.69;5039816;28;20516;-64
2022/06/05 09:53:47;;;;;;;15.00;13.45;;;31.80;44.10;;;29.08;53.26;95941.66;4958862;28;20041;-65
2022/06/05 09:59:54;;;;;;;5.70;4.65;;;30.80;45.70;;;28.66;53.27;95949.97;4989727;28;20551;-65
2022/06/05 10:02:21;;;;;;;5.38;4.70;;;30.70;46.80;;;28.61;54.26;95950.09;4995632;28;20042;-65
2022/06/05 10:04:47;;;;;;;5.40;4.68;;;30.80;47.20;;;28.53;54.85;95950.84;5021509;28;20022;-65
2022/06/05 10:07:44;;;;;;;7.95;6.85;;;30.50;48.10;;;28.33;52.69;95954.03;5009368;28;20040;-65
2022/06/05 10:10:24;;;;;;;13.57;12.18;;;30.10;47.90;;;28.13;54.82;95949.03;5008915;28;20534;-64
2022/06/05 10:12:56;;;;;;;6.78;6.15;;;29.90;49.70;;;27.97;55.53;95943.94;4991609;28;20109;-64
2022/06/05 10:15:29;;;;;;;7.40;5.68;;;29.70;50.80;;;27.88;54.43;95939.56;4998289;28;20524;-64
2022/06/05 10:17:58;;;;;;;8.63;6.93;;;29.60;50.00;;;27.73;55.57;95930.66;5000802;28;20116;-64
2022/06/05 10:20:46;;;;;;;7.68;6.57;;;29.50;50.20;;;27.62;55.69;95925.75;4990115;28;20037;-64
2022/06/05 10:23:35;;;;;;;7.20;5.82;;;29.40;51.50;;;27.45;55.63;95926.34;5018233;28;20080;-65
2022/06/05 10:26:37;;;;;;;8.30;7.50;;;29.10;50.10;;;27.35;56.38;95915.75;5009145;28;20042;-65
2022/06/05 10:29:23;;;;;;;11.50;10.40;;;29.10;51.20;;;27.29;56.73;95920.44;4973399;28;20038;-64
2022/06/05 10:32:01;;;;;;;8.48;7.68;;;29.00;52.20;;;27.18;55.78;95920.94;4978233;28;20085;-64
2022/06/05 10:34:51;;;;;;;12.63;11.15;;;28.70;51.20;;;27.00;56.28;95918.03;5024429;28;20120;-64
2022/06/05 10:37:39;;;;;;;29.83;26.52;;;28.60;52.10;;;26.91;56.44;95918.94;5012342;28;20152;-65
2022/06/05 10:40:30;;;;;;;15.65;14.02;;;28.50;52.30;;;26.78;56.39;95925.94;5026483;28;20041;-63
2022/06/05 10:43:13;;;;;;;8.65;7.85;;;28.30;52.30;;;26.64;56.43;95915.09;5012685;28;20594;-64
2022/06/05 10:45:48;;;;;;;13.70;12.40;;;28.00;52.40;;;26.49;57.22;95905.38;4998119;28;20033;-65
2022/06/05 10:48:56;;;;;;;15.55;14.07;;;28.10;53.10;;;26.45;58.52;95895.44;4979134;28;20548;-64
2022/06/05 10:51:28;;;;;;;8.75;7.85;;;28.30;53.50;;;26.44;59.04;95901.94;4970990;28;20144;-64
2022/06/05 10:54:05;;;;;;;61.38;48.05;;;28.30;53.50;;;26.44;59.22;95901.94;4993302;28;20528;-64
2022/06/05 10:57:03;;;;;;;12.80;11.48;;;28.30;53.60;;;26.48;58.32;95892.16;4992972;28;20080;-65
2022/06/05 11:00:05;;;;;;;9.35;7.85;;;28.30;53.20;;;26.47;58.60;95895.94;4997194;28;20030;-65
2022/06/05 11:02:47;;;;;;;18.23;16.40;;;28.30;53.30;;;26.47;58.60;95891.34;4994108;28;20045;-64